Ludlow, VT

8:10 PM EDT on August 03, 2015 (GMT -0400)
North Hill | | Change Station
CLOSE
Current Station
Personal Weather Station
Location: Ludlow, VT
Elevation: 1010 ft
Nearby Weather Stations
Active Advisory: Severe Thunderstorm Watch Active Notice: Local Storm Report

Elev 1010 ft 43.40 °N, 72.70 °W | Updated 10 minutes ago

Light Rain
Light Rain
64.5 °F
Feels Like 64.5 °F
N
0.0
Wind Variable Wind from WSW
Gusts 8.0 mph

Today
High -- | Low -- °F
--% Chance of Precip.
Yesterday
High -- | Low -- °F
Precip. -- in
5:42 AM 8:10 PM
Waning Gibbous, 83% visible
Pressure 29.78 in
Visibility 8.0 miles
Clouds Few 5000 ft
Scattered Clouds 7500 ft
Overcast 10000 ft
Dew Point 64.5 °F
Humidity 100%
Rainfall 0.00 in
Snow Depth Not available.
UV 0 out of 12
Pollen 5.60 out of 12
Air Quality Not available.
Flu Activity Not available.
METAR KVSF 032354Z AUTO 00000KT 8SM -RA FEW050 SCT075 OVC100 19/18 A2978 RMK AO2 RAB28 SLP083 P0004 60015 T01940183 10339 20194 51011

More Conditions Fewer Conditions

Pressure 29.78 in
Visibility 8.0 miles
Clouds Few 5000 ft
Scattered Clouds 7500 ft
Overcast 10000 ft
Dew Point 64.5 °F
Humidity 100%
Rainfall 0.00 in
Snow Depth Not available.
UV 0 out of 12
Pollen 5.60 out of 12
Air Quality Not available.
Flu Activity Not available.
METAR KVSF 032354Z AUTO 00000KT 8SM -RA FEW050 SCT075 OVC100 19/18 A2978 RMK AO2 RAB28 SLP083 P0004 60015 T01940183 10339 20194 51011

More Conditions Fewer Conditions

10-Day Weather Forecast

×

Almanac

Astronomy

Aug. 03, 2015 Rise Set
Actual Time
Civil Twilight
Nautical Twilight
Astronomical Twilight
Moon
Length of Visible Light
Length of Day
Tomorrow will be .
, % of the Moon is Illuminated

Today's Extremes

State Highs State Lows

Community

WunderPhotos

Upload Photos

1,843,788 photos uploaded!

WunderBlogs® & News

Nearby

Air Quality

  Air Quality AQ Index Pollutant
Not available.

Snow Depth

Station Depth Elevation

Earthquake Activity

City Distance Mag. Time & Date
Minimum magnitude displayed is 2.5.

Coastal Water Temperatures

Place Temperature

Stations

Nearby Weather Stations

Station Location Temp. Windchill Dew Point Humidity Wind Precip. Elev Updated Type
                   
Severe Thunderstorm Watch
Statement as of 8:03 PM EDT on August 03, 2015

Severe Thunderstorm Watch 466 remains in effect until 900 PM EDT

VT
. Vermont counties included are

Orange Rutland Windsor